sensor_id;sensor_type;location;lat;lon;timestamp;pressure;altitude;pressure_sealevel;temperature;humidity
35121;BME280;21297;52.008;4.576;2023-08-31T00:02:28;51764.78;;;-143.47;100.00
35121;BME280;21297;52.008;4.576;2023-08-31T00:05:14;51432.22;;;-143.47;100.00
35121;BME280;21297;52.008;4.576;2023-08-31T00:07:59;51597.53;;;-143.47;100.00
35121;BME280;21297;52.008;4.576;2023-08-31T00:10:46;51833.66;;;-143.47;100.00
35121;BME280;21297;52.008;4.576;2023-08-31T00:13:31;51780.53;;;-143.47;100.00
35121;BME280;21297;52.008;4.576;2023-08-31T00:16:17;51865.16;;;-143.47;100.00
35121;BME280;21297;52.008;4.576;2023-08-31T00:19:03;51951.72;;;-143.47;100.00
35121;BME280;21297;52.008;4.576;2023-08-31T00:21:49;51546.34;;;-143.47;100.00
35121;BME280;21297;52.008;4.576;2023-08-31T00:24:34;51595.56;;;-143.47;100.00
35121;BME280;21297;52.008;4.576;2023-08-31T00:27:22;51530.63;;;-143.47;100.00
35121;BME280;21297;52.008;4.576;2023-08-31T00:30:07;51575.88;;;-143.47;100.00
35121;BME280;21297;52.008;4.576;2023-08-31T00:32:54;51719.53;;;-143.47;100.00
35121;BME280;21297;52.008;4.576;2023-08-31T00:35:41;51451.91;;;-143.47;100.00
35121;BME280;21297;52.008;4.576;2023-08-31T00:38:31;51552.25;;;-143.47;100.00
35121;BME280;21297;52.008;4.576;2023-08-31T00:41:17;51632.94;;;-143.47;100.00
35121;BME280;21297;52.008;4.576;2023-08-31T00:44:03;51528.66;;;-143.47;100.00
35121;BME280;21297;52.008;4.576;2023-08-31T00:46:52;51127.25;;;-143.47;100.00
35121;BME280;21297;52.008;4.576;2023-08-31T00:49:39;51420.44;;;-143.47;100.00
35121;BME280;21297;52.008;4.576;2023-08-31T00:52:25;51473.56;;;-143.47;100.00
35121;BME280;21297;52.008;4.576;2023-08-31T00:55:11;51064.28;;;-143.47;100.00
35121;BME280;21297;52.008;4.576;2023-08-31T00:57:58;51109.56;;;-143.47;100.00
35121;BME280;21297;52.008;4.576;2023-08-31T01:07:54;50983.63;;;-143.47;100.00
35121;BME280;21297;52.008;4.576;2023-08-31T01:13:34;50991.50;;;-143.47;100.00
35121;BME280;21297;52.008;4.576;2023-08-31T01:16:24;50902.97;;;-143.47;100.00
35121;BME280;21297;52.008;4.576;2023-08-31T01:22:30;50861.66;;;-143.47;100.00
35121;BME280;21297;52.008;4.576;2023-08-31T01:25:17;51231.53;;;-143.47;100.00
35121;BME280;21297;52.008;4.576;2023-08-31T01:28:06;51172.50;;;-143.47;100.00
35121;BME280;21297;52.008;4.576;2023-08-31T01:30:53;50867.56;;;-143.47;100.00
35121;BME280;21297;52.008;4.576;2023-08-31T01:33:38;51196.13;;;-143.47;100.00
35121;BME280;21297;52.008;4.576;2023-08-31T01:36:28;51070.19;;;-143.47;100.00
35121;BME280;21297;52.008;4.576;2023-08-31T01:39:23;51015.13;;;-143.47;100.00
35121;BME280;21297;52.008;4.576;2023-08-31T01:42:13;51060.38;;;-143.47;100.00
35121;BME280;21297;52.008;4.576;2023-08-31T01:45:01;51158.75;;;-143.47;100.00
35121;BME280;21297;52.008;4.576;2023-08-31T01:47:48;50879.34;;;-143.47;100.00
35121;BME280;21297;52.008;4.576;2023-08-31T01:50:34;51119.38;;;-143.47;100.00
35121;BME280;21297;52.008;4.576;2023-08-31T01:53:20;51300.41;;;-143.47;100.00
35121;BME280;21297;52.008;4.576;2023-08-31T01:56:06;51337.78;;;-143.47;100.00
35121;BME280;21297;52.008;4.576;2023-08-31T01:58:51;51019.03;;;-143.47;100.00
35121;BME280;21297;52.008;4.576;2023-08-31T02:01:37;51127.25;;;-143.47;100.00
35121;BME280;21297;52.008;4.576;2023-08-31T02:04:23;51213.84;;;-143.47;100.00
35121;BME280;21297;52.008;4.576;2023-08-31T02:07:08;51172.50;;;-143.47;100.00
35121;BME280;21297;52.008;4.576;2023-08-31T02:09:54;51396.81;;;-143.47;100.00
35121;BME280;21297;52.008;4.576;2023-08-31T02:12:39;51369.28;;;-143.47;100.00
35121;BME280;21297;52.008;4.576;2023-08-31T02:15:25;51361.41;;;-143.47;100.00
35121;BME280;21297;52.008;4.576;2023-08-31T02:18:11;51402.72;;;-143.47;100.00
35121;BME280;21297;52.008;4.576;2023-08-31T02:20:57;51538.50;;;-143.47;100.00
35121;BME280;21297;52.008;4.576;2023-08-31T02:23:43;51261.06;;;-143.47;100.00
35121;BME280;21297;52.008;4.576;2023-08-31T02:26:28;51404.69;;;-143.47;100.00
35121;BME280;21297;52.008;4.576;2023-08-31T02:29:14;51377.13;;;-143.47;100.00
35121;BME280;21297;52.008;4.576;2023-08-31T02:32:00;51298.44;;;-143.47;100.00
35121;BME280;21297;52.008;4.576;2023-08-31T02:34:45;51188.25;;;-143.47;100.00
35121;BME280;21297;52.008;4.576;2023-08-31T02:37:31;51306.31;;;-143.47;100.00
35121;BME280;21297;52.008;4.576;2023-08-31T02:40:16;51385.00;;;-143.47;100.00
35121;BME280;21297;52.008;4.576;2023-08-31T02:43:02;51322.03;;;-143.47;100.00
35121;BME280;21297;52.008;4.576;2023-08-31T02:45:48;51396.81;;;-143.47;100.00
35121;BME280;21297;52.008;4.576;2023-08-31T02:48:34;51314.19;;;-143.47;100.00
35121;BME280;21297;52.008;4.576;2023-08-31T02:51:19;51432.22;;;-143.47;100.00
35121;BME280;21297;52.008;4.576;2023-08-31T02:54:05;51117.41;;;-143.47;100.00
35121;BME280;21297;52.008;4.576;2023-08-31T02:56:51;51184.31;;;-143.47;100.00
35121;BME280;21297;52.008;4.576;2023-08-31T02:59:37;51347.63;;;-143.47;100.00
35121;BME280;21297;52.008;4.576;2023-08-31T03:02:22;51253.19;;;-143.47;100.00
35121;BME280;21297;52.008;4.576;2023-08-31T03:05:08;51247.28;;;-143.47;100.00
35121;BME280;21297;52.008;4.576;2023-08-31T03:07:54;51471.59;;;-143.47;100.00
35121;BME280;21297;52.008;4.576;2023-08-31T03:10:40;51503.06;;;-143.47;100.00
35121;BME280;21297;52.008;4.576;2023-08-31T03:13:25;51603.41;;;-143.47;100.00
35121;BME280;21297;52.008;4.576;2023-08-31T03:16:11;51247.28;;;-143.47;100.00
35121;BME280;21297;52.008;4.576;2023-08-31T03:18:57;51469.63;;;-143.47;100.00
35121;BME280;21297;52.008;4.576;2023-08-31T03:21:42;51375.16;;;-143.47;100.00
35121;BME280;21297;52.008;4.576;2023-08-31T03:24:28;51392.88;;;-143.47;100.00
35121;BME280;21297;52.008;4.576;2023-08-31T03:27:14;51444.03;;;-143.47;100.00
35121;BME280;21297;52.008;4.576;2023-08-31T03:30:02;51465.69;;;-143.47;100.00
35121;BME280;21297;52.008;4.576;2023-08-31T03:32:48;51459.78;;;-143.47;100.00
35121;BME280;21297;52.008;4.576;2023-08-31T03:35:34;51243.34;;;-143.47;100.00
35121;BME280;21297;52.008;4.576;2023-08-31T03:38:20;51495.19;;;-143.47;100.00
35121;BME280;21297;52.008;4.576;2023-08-31T03:41:05;51459.78;;;-143.47;100.00
35121;BME280;21297;52.008;4.576;2023-08-31T03:43:51;51566.03;;;-143.47;100.00
35121;BME280;21297;52.008;4.576;2023-08-31T03:46:37;51461.75;;;-143.47;100.00
35121;BME280;21297;52.008;4.576;2023-08-31T03:49:22;51300.41;;;-143.47;100.00
35121;BME280;21297;52.008;4.576;2023-08-31T03:52:08;51235.47;;;-143.47;100.00
35121;BME280;21297;52.008;4.576;2023-08-31T03:54:53;51286.63;;;-143.47;100.00
35121;BME280;21297;52.008;4.576;2023-08-31T03:57:39;51477.50;;;-143.47;100.00
35121;BME280;21297;52.008;4.576;2023-08-31T04:00:25;51170.53;;;-143.47;100.00
35121;BME280;21297;52.008;4.576;2023-08-31T04:03:10;51154.81;;;-143.47;100.00
35121;BME280;21297;52.008;4.576;2023-08-31T04:05:56;51479.47;;;-143.47;100.00
35121;BME280;21297;52.008;4.576;2023-08-31T04:08:42;51137.09;;;-143.47;100.00
35121;BME280;21297;52.008;4.576;2023-08-31T04:11:27;51310.25;;;-143.47;100.00
35121;BME280;21297;52.008;4.576;2023-08-31T04:14:13;51548.31;;;-143.47;100.00
35121;BME280;21297;52.008;4.576;2023-08-31T04:16:59;51064.28;;;-143.47;100.00
35121;BME280;21297;52.008;4.576;2023-08-31T04:19:44;51168.56;;;-143.47;100.00
35121;BME280;21297;52.008;4.576;2023-08-31T04:22:30;51475.53;;;-143.47;100.00
35121;BME280;21297;52.008;4.576;2023-08-31T04:25:15;51385.00;;;-143.47;100.00
35121;BME280;21297;52.008;4.576;2023-08-31T04:28:01;51282.69;;;-143.47;100.00
35121;BME280;21297;52.008;4.576;2023-08-31T04:30:47;51385.00;;;-143.47;100.00
35121;BME280;21297;52.008;4.576;2023-08-31T04:33:35;51357.47;;;-143.47;100.00
35121;BME280;21297;52.008;4.576;2023-08-31T04:36:21;51463.72;;;-143.47;100.00
35121;BME280;21297;52.008;4.576;2023-08-31T04:39:07;51255.16;;;-143.47;100.00
35121;BME280;21297;52.008;4.576;2023-08-31T04:41:53;51302.38;;;-143.47;100.00
35121;BME280;21297;52.008;4.576;2023-08-31T04:44:39;51518.81;;;-143.47;100.00
35121;BME280;21297;52.008;4.576;2023-08-31T04:47:24;51121.34;;;-143.47;100.00
35121;BME280;21297;52.008;4.576;2023-08-31T04:50:10;51447.97;;;-143.47;100.00
35121;BME280;21297;52.008;4.576;2023-08-31T04:52:56;51276.78;;;-143.47;100.00
35121;BME280;21297;52.008;4.576;2023-08-31T04:55:41;51119.38;;;-143.47;100.00
35121;BME280;21297;52.008;4.576;2023-08-31T04:58:27;51473.56;;;-143.47;100.00
35121;BME280;21297;52.008;4.576;2023-08-31T05:01:13;51241.38;;;-143.47;100.00
35121;BME280;21297;52.008;4.576;2023-08-31T05:03:58;51215.78;;;-143.47;100.00
35121;BME280;21297;52.008;4.576;2023-08-31T05:06:44;51186.28;;;-143.47;100.00
35121;BME280;21297;52.008;4.576;2023-08-31T05:09:30;51398.78;;;-143.47;100.00
35121;BME280;21297;52.008;4.576;2023-08-31T05:12:20;51266.94;;;-143.47;100.00
35121;BME280;21297;52.008;4.576;2023-08-31T05:15:06;51302.38;;;-143.47;100.00
35121;BME280;21297;52.008;4.576;2023-08-31T05:17:51;51412.56;;;-143.47;100.00
35121;BME280;21297;52.008;4.576;2023-08-31T05:20:37;51194.16;;;-143.47;100.00
35121;BME280;21297;52.008;4.576;2023-08-31T05:23:23;51648.69;;;-143.47;100.00
35121;BME280;21297;52.008;4.576;2023-08-31T05:26:08;51426.34;;;-143.47;100.00
35121;BME280;21297;52.008;4.576;2023-08-31T05:28:54;51261.06;;;-143.47;100.00
35121;BME280;21297;52.008;4.576;2023-08-31T05:31:40;51270.88;;;-143.47;100.00
35121;BME280;21297;52.008;4.576;2023-08-31T05:34:25;51548.31;;;-143.47;100.00
35121;BME280;21297;52.008;4.576;2023-08-31T05:37:11;51664.44;;;-143.47;100.00
35121;BME280;21297;52.008;4.576;2023-08-31T05:39:57;51432.22;;;-143.47;100.00
35121;BME280;21297;52.008;4.576;2023-08-31T05:42:43;51534.56;;;-143.47;100.00
35121;BME280;21297;52.008;4.576;2023-08-31T05:45:32;51634.91;;;-143.47;100.00
35121;BME280;21297;52.008;4.576;2023-08-31T05:48:18;51444.03;;;-143.47;100.00
35121;BME280;21297;52.008;4.576;2023-08-31T05:51:04;51280.72;;;-143.47;100.00
35121;BME280;21297;52.008;4.576;2023-08-31T05:53:50;51656.56;;;-143.47;100.00
35121;BME280;21297;52.008;4.576;2023-08-31T05:56:36;51479.47;;;-143.47;100.00
35121;BME280;21297;52.008;4.576;2023-08-31T05:59:27;51542.44;;;-143.47;100.00
35121;BME280;21297;52.008;4.576;2023-08-31T06:02:13;51562.09;;;-143.47;100.00
35121;BME280;21297;52.008;4.576;2023-08-31T06:04:59;51402.72;;;-143.47;100.00
35121;BME280;21297;52.008;4.576;2023-08-31T06:07:45;51568.00;;;-143.47;100.00
35121;BME280;21297;52.008;4.576;2023-08-31T06:10:30;51514.88;;;-143.47;100.00
35121;BME280;21297;52.008;4.576;2023-08-31T06:13:16;51192.19;;;-143.47;100.00
35121;BME280;21297;52.008;4.576;2023-08-31T06:16:02;51367.31;;;-143.47;100.00
35121;BME280;21297;52.008;4.576;2023-08-31T06:18:48;51666.41;;;-143.47;100.00
35121;BME280;21297;52.008;4.576;2023-08-31T06:21:33;51251.22;;;-143.47;100.00
35121;BME280;21297;52.008;4.576;2023-08-31T06:24:19;51280.72;;;-143.47;100.00
35121;BME280;21297;52.008;4.576;2023-08-31T06:27:05;51239.41;;;-143.47;100.00
35121;BME280;21297;52.008;4.576;2023-08-31T06:29:50;51754.94;;;-143.47;99.83
35121;BME280;21297;52.008;4.576;2023-08-31T06:32:36;51550.28;;;-143.47;98.91
35121;BME280;21297;52.008;4.576;2023-08-31T06:35:22;51733.28;;;-143.47;96.69
35121;BME280;21297;52.008;4.576;2023-08-31T06:38:07;51810.03;;;-143.47;95.36
35121;BME280;21297;52.008;4.576;2023-08-31T06:40:53;51615.22;;;-143.47;93.09
35121;BME280;21297;52.008;4.576;2023-08-31T06:43:44;51652.63;;;-143.47;91.70
35121;BME280;21297;52.008;4.576;2023-08-31T06:46:31;51642.78;;;-143.47;87.48
35121;BME280;21297;52.008;4.576;2023-08-31T06:49:23;51904.50;;;-143.47;84.22
35121;BME280;21297;52.008;4.576;2023-08-31T06:52:09;51666.41;;;-143.47;82.87
35121;BME280;21297;52.008;4.576;2023-08-31T06:54:55;51607.34;;;-143.47;83.35
35121;BME280;21297;52.008;4.576;2023-08-31T06:57:41;52026.50;;;-143.47;82.55
35121;BME280;21297;52.008;4.576;2023-08-31T07:00:27;51853.34;;;-143.47;82.04
35121;BME280;21297;52.008;4.576;2023-08-31T07:03:13;51973.38;;;-143.47;79.37
35121;BME280;21297;52.008;4.576;2023-08-31T07:05:59;51697.88;;;-143.47;78.02
35121;BME280;21297;52.008;4.576;2023-08-31T07:08:45;51823.81;;;-143.47;75.78
35121;BME280;21297;52.008;4.576;2023-08-31T07:11:32;51792.34;;;-143.47;72.61
35121;BME280;21297;52.008;4.576;2023-08-31T07:14:18;51979.28;;;-143.47;72.42
35121;BME280;21297;52.008;4.576;2023-08-31T07:17:04;51867.13;;;-143.47;74.93
35121;BME280;21297;52.008;4.576;2023-08-31T07:19:49;51859.25;;;-143.47;71.47
35121;BME280;21297;52.008;4.576;2023-08-31T07:22:35;51845.47;;;-143.47;71.17
35121;BME280;21297;52.008;4.576;2023-08-31T07:25:20;52079.66;;;-143.47;71.50
35121;BME280;21297;52.008;4.576;2023-08-31T07:28:06;51995.03;;;-143.47;70.36
35121;BME280;21297;52.008;4.576;2023-08-31T07:31:05;51888.75;;;-143.47;69.50
35121;BME280;21297;52.008;4.576;2023-08-31T07:33:51;51774.63;;;-143.47;66.36
35121;BME280;21297;52.008;4.576;2023-08-31T07:36:37;51857.28;;;-143.47;66.54
35121;BME280;21297;52.008;4.576;2023-08-31T07:39:23;51804.13;;;-143.47;67.13
35121;BME280;21297;52.008;4.576;2023-08-31T07:42:08;52002.91;;;-143.47;69.74
35121;BME280;21297;52.008;4.576;2023-08-31T07:44:54;51772.66;;;-143.47;66.58
35121;BME280;21297;52.008;4.576;2023-08-31T07:47:39;51957.63;;;-143.47;64.95
35121;BME280;21297;52.008;4.576;2023-08-31T07:50:25;51939.91;;;-143.47;63.67
35121;BME280;21297;52.008;4.576;2023-08-31T07:53:11;51896.63;;;-143.47;62.04
35121;BME280;21297;52.008;4.576;2023-08-31T07:55:58;52010.78;;;-143.47;61.46
35121;BME280;21297;52.008;4.576;2023-08-31T07:58:44;51987.16;;;-143.47;60.66
35121;BME280;21297;52.008;4.576;2023-08-31T08:01:32;51957.63;;;-143.47;58.71
35121;BME280;21297;52.008;4.576;2023-08-31T08:04:18;51979.28;;;-143.47;58.61
35121;BME280;21297;52.008;4.576;2023-08-31T08:07:04;51916.31;;;-143.47;58.03
35121;BME280;21297;52.008;4.576;2023-08-31T08:09:50;51876.94;;;-143.47;58.37
35121;BME280;21297;52.008;4.576;2023-08-31T08:12:39;51849.41;;;-143.47;58.33
35121;BME280;21297;52.008;4.576;2023-08-31T08:15:25;51747.06;;;-143.47;59.60
35121;BME280;21297;52.008;4.576;2023-08-31T08:18:11;51786.44;;;-143.47;56.78
35121;BME280;21297;52.008;4.576;2023-08-31T08:20:57;51896.63;;;-143.47;57.00
35121;BME280;21297;52.008;4.576;2023-08-31T08:23:43;52000.94;;;-143.47;57.58
35121;BME280;21297;52.008;4.576;2023-08-31T08:26:28;51963.53;;;-143.47;57.56
35121;BME280;21297;52.008;4.576;2023-08-31T08:29:14;52134.75;;;-143.47;58.93
35121;BME280;21297;52.008;4.576;2023-08-31T08:32:00;52140.66;;;-143.47;58.41
35121;BME280;21297;52.008;4.576;2023-08-31T08:34:46;52162.31;;;-143.47;59.10
35121;BME280;21297;52.008;4.576;2023-08-31T08:37:31;52227.25;;;-143.47;59.49
35121;BME280;21297;52.008;4.576;2023-08-31T08:40:24;51993.06;;;-143.47;56.29
35121;BME280;21297;52.008;4.576;2023-08-31T08:43:10;51910.41;;;-143.47;59.55
35121;BME280;21297;52.008;4.576;2023-08-31T08:46:06;51847.44;;;-143.47;57.39
35121;BME280;21297;52.008;4.576;2023-08-31T08:48:53;51851.38;;;-143.47;57.43
35121;BME280;21297;52.008;4.576;2023-08-31T08:51:39;51961.56;;;-143.47;56.48
35121;BME280;21297;52.008;4.576;2023-08-31T08:54:27;51847.44;;;-143.47;57.59
35121;BME280;21297;52.008;4.576;2023-08-31T08:57:12;51835.63;;;-143.47;58.67
35121;BME280;21297;52.008;4.576;2023-08-31T09:00:01;51880.88;;;-143.47;55.85
35121;BME280;21297;52.008;4.576;2023-08-31T09:02:48;52052.09;;;-143.47;55.58
35121;BME280;21297;52.008;4.576;2023-08-31T09:05:34;52126.88;;;-143.47;57.72
35121;BME280;21297;52.008;4.576;2023-08-31T09:08:27;52286.28;;;-143.47;54.20
35121;BME280;21297;52.008;4.576;2023-08-31T09:11:19;52244.97;;;-143.47;52.38
35121;BME280;21297;52.008;4.576;2023-08-31T09:14:16;52292.19;;;-143.47;52.13
35121;BME280;21297;52.008;4.576;2023-08-31T09:17:02;52219.38;;;-143.47;51.02
35121;BME280;21297;52.008;4.576;2023-08-31T09:19:58;52164.28;;;-143.47;51.60
35121;BME280;21297;52.008;4.576;2023-08-31T09:22:45;52144.59;;;-143.47;51.55
35121;BME280;21297;52.008;4.576;2023-08-31T09:25:30;52099.31;;;-143.47;51.36
35121;BME280;21297;52.008;4.576;2023-08-31T09:28:19;52266.59;;;-143.47;51.13
35121;BME280;21297;52.008;4.576;2023-08-31T09:31:07;51993.06;;;-143.47;51.64
35121;BME280;21297;52.008;4.576;2023-08-31T09:33:56;51937.94;;;-143.47;50.38
35121;BME280;21297;52.008;4.576;2023-08-31T09:36:43;52061.94;;;-143.47;54.58
35121;BME280;21297;52.008;4.576;2023-08-31T09:39:35;52002.91;;;-143.47;51.55
35121;BME280;21297;52.008;4.576;2023-08-31T09:42:21;52105.22;;;-143.47;51.95
35121;BME280;21297;52.008;4.576;2023-08-31T09:45:35;52042.25;;;-143.47;52.28
35121;BME280;21297;52.008;4.576;2023-08-31T09:48:24;51995.03;;;-143.47;51.64
35121;BME280;21297;52.008;4.576;2023-08-31T09:51:11;52113.09;;;-143.47;51.25
35121;BME280;21297;52.008;4.576;2023-08-31T09:53:59;52014.69;;;-143.47;50.73
35121;BME280;21297;52.008;4.576;2023-08-31T09:56:47;51977.31;;;-143.47;50.25
35121;BME280;21297;52.008;4.576;2023-08-31T09:59:33;52258.75;;;-143.47;52.40
35121;BME280;21297;52.008;4.576;2023-08-31T10:02:19;52278.41;;;-143.47;53.50
35121;BME280;21297;52.008;4.576;2023-08-31T10:05:05;52187.88;;;-143.47;49.78
35121;BME280;21297;52.008;4.576;2023-08-31T10:07:52;51961.56;;;-143.47;50.89
35121;BME280;21297;52.008;4.576;2023-08-31T10:10:39;52203.63;;;-143.47;51.84
35121;BME280;21297;52.008;4.576;2023-08-31T10:13:28;52213.47;;;-143.47;51.31
35121;BME280;21297;52.008;4.576;2023-08-31T10:16:20;51991.09;;;-143.47;51.35
35121;BME280;21297;52.008;4.576;2023-08-31T10:19:06;52032.41;;;-143.47;52.09
35121;BME280;21297;52.008;4.576;2023-08-31T10:21:52;52223.31;;;-143.47;48.81
35121;BME280;21297;52.008;4.576;2023-08-31T10:25:04;52071.78;;;-143.47;49.75
35121;BME280;21297;52.008;4.576;2023-08-31T10:27:51;52038.31;;;-143.47;51.33
35121;BME280;21297;52.008;4.576;2023-08-31T10:30:37;52014.69;;;-143.47;53.15
35121;BME280;21297;52.008;4.576;2023-08-31T10:33:23;52231.19;;;-143.47;50.76
35121;BME280;21297;52.008;4.576;2023-08-31T10:36:12;51961.56;;;-143.47;49.53
35121;BME280;21297;52.008;4.576;2023-08-31T10:41:57;51908.44;;;-143.47;50.42
35121;BME280;21297;52.008;4.576;2023-08-31T10:44:43;51666.41;;;-143.47;50.25
35121;BME280;21297;52.008;4.576;2023-08-31T10:47:40;51804.13;;;-143.47;49.86
35121;BME280;21297;52.008;4.576;2023-08-31T10:50:29;52166.25;;;-143.47;49.26
35121;BME280;21297;52.008;4.576;2023-08-31T10:53:14;52050.13;;;-143.47;46.48
35121;BME280;21297;52.008;4.576;2023-08-31T10:56:00;52140.66;;;-143.47;49.19
35121;BME280;21297;52.008;4.576;2023-08-31T10:59:01;52054.06;;;-143.47;47.79
35121;BME280;21297;52.008;4.576;2023-08-31T11:01:58;52250.88;;;-143.47;47.26
35121;BME280;21297;52.008;4.576;2023-08-31T11:04:54;52422.09;;;-143.47;47.86
35121;BME280;21297;52.008;4.576;2023-08-31T11:07:41;52459.50;;;-143.47;45.83
35121;BME280;21297;52.008;4.576;2023-08-31T11:10:27;52077.69;;;-143.47;46.53
35121;BME280;21297;52.008;4.576;2023-08-31T11:13:18;51882.84;;;-143.47;47.88
35121;BME280;21297;52.008;4.576;2023-08-31T11:16:04;52290.22;;;-143.47;48.73
35121;BME280;21297;52.008;4.576;2023-08-31T11:18:50;52347.31;;;-143.47;45.32
35121;BME280;21297;52.008;4.576;2023-08-31T11:21:37;52392.56;;;-143.47;46.44
35121;BME280;21297;52.008;4.576;2023-08-31T11:24:23;51979.28;;;-143.47;46.35
35121;BME280;21297;52.008;4.576;2023-08-31T11:27:09;52138.69;;;-143.47;46.49
35121;BME280;21297;52.008;4.576;2023-08-31T11:29:58;52270.53;;;-143.47;45.31
35121;BME280;21297;52.008;4.576;2023-08-31T11:32:51;51949.75;;;-143.47;45.44
35121;BME280;21297;52.008;4.576;2023-08-31T11:35:39;52278.41;;;-143.47;47.94
35121;BME280;21297;52.008;4.576;2023-08-31T11:38:26;52211.50;;;-143.47;46.29
35121;BME280;21297;52.008;4.576;2023-08-31T11:41:12;52563.81;;;-143.47;46.26
35121;BME280;21297;52.008;4.576;2023-08-31T11:43:58;52559.88;;;-143.47;43.07
35121;BME280;21297;52.008;4.576;2023-08-31T11:46:46;52335.50;;;-143.47;43.57
35121;BME280;21297;52.008;4.576;2023-08-31T11:49:35;52489.00;;;-143.47;44.42
35121;BME280;21297;52.008;4.576;2023-08-31T11:52:21;52758.66;;;-143.47;43.48
35121;BME280;21297;52.008;4.576;2023-08-31T11:55:14;52798.03;;;-143.47;42.92
35121;BME280;21297;52.008;4.576;2023-08-31T11:58:00;52750.78;;;-143.47;43.45
35121;BME280;21297;52.008;4.576;2023-08-31T12:00:59;52349.28;;;-143.47;44.33
35121;BME280;21297;52.008;4.576;2023-08-31T12:15:52;52315.81;;;-143.47;45.12
35121;BME280;21297;52.008;4.576;2023-08-31T12:18:18;51910.41;;;-143.47;46.67
35121;BME280;21297;52.008;4.576;2023-08-31T12:20:49;51853.34;;;-143.47;48.27
35121;BME280;21297;52.008;4.576;2023-08-31T12:23:19;52103.25;;;-143.47;46.30
35121;BME280;21297;52.008;4.576;2023-08-31T12:25:51;52414.22;;;-143.47;47.21
35121;BME280;21297;52.008;4.576;2023-08-31T12:28:18;52264.63;;;-143.47;45.23
35121;BME280;21297;52.008;4.576;2023-08-31T12:30:56;51998.97;;;-143.47;45.46
35121;BME280;21297;52.008;4.576;2023-08-31T12:33:24;51941.88;;;-143.47;46.38
35121;BME280;21297;52.008;4.576;2023-08-31T12:35:50;52193.78;;;-143.47;45.95
35121;BME280;21297;52.008;4.576;2023-08-31T12:38:15;52404.38;;;-143.47;47.11
35121;BME280;21297;52.008;4.576;2023-08-31T12:40:41;52522.47;;;-143.47;44.18
35121;BME280;21297;52.008;4.576;2023-08-31T12:43:06;52465.38;;;-143.47;46.25
35121;BME280;21297;52.008;4.576;2023-08-31T12:45:32;52231.19;;;-143.47;44.11
35121;BME280;21297;52.008;4.576;2023-08-31T12:47:57;52042.25;;;-143.47;45.36
35121;BME280;21297;52.008;4.576;2023-08-31T12:50:23;52134.75;;;-143.47;46.75
35121;BME280;21297;52.008;4.576;2023-08-31T12:52:48;51908.44;;;-143.47;46.74
35121;BME280;21297;52.008;4.576;2023-08-31T12:55:14;51971.41;;;-143.47;47.84
35121;BME280;21297;52.008;4.576;2023-08-31T12:57:40;51855.31;;;-143.47;46.32
35121;BME280;21297;52.008;4.576;2023-08-31T13:00:07;51821.84;;;-143.47;46.50
35121;BME280;21297;52.008;4.576;2023-08-31T13:02:39;51741.16;;;-143.47;46.97
35121;BME280;21297;52.008;4.576;2023-08-31T13:05:05;51995.03;;;-143.47;46.85
35121;BME280;21297;52.008;4.576;2023-08-31T13:07:31;52176.09;;;-143.47;46.76
35121;BME280;21297;52.008;4.576;2023-08-31T13:09:59;52400.44;;;-143.47;45.63
35121;BME280;21297;52.008;4.576;2023-08-31T13:12:24;52392.56;;;-143.47;44.60
35121;BME280;21297;52.008;4.576;2023-08-31T13:14:49;52496.88;;;-143.47;43.99
35121;BME280;21297;52.008;4.576;2023-08-31T13:17:15;52443.75;;;-143.47;46.18
35121;BME280;21297;52.008;4.576;2023-08-31T13:19:40;52142.63;;;-143.47;45.12
35121;BME280;21297;52.008;4.576;2023-08-31T13:22:05;51892.69;;;-143.47;45.81
35121;BME280;21297;52.008;4.576;2023-08-31T13:24:31;52105.22;;;-143.47;47.23
35121;BME280;21297;52.008;4.576;2023-08-31T13:26:56;52205.59;;;-143.47;45.00
35121;BME280;21297;52.008;4.576;2023-08-31T13:29:22;52571.69;;;-143.47;44.97
35121;BME280;21297;52.008;4.576;2023-08-31T13:31:47;52514.59;;;-143.47;43.56
35121;BME280;21297;52.008;4.576;2023-08-31T13:34:12;52262.69;;;-143.47;45.01
35121;BME280;21297;52.008;4.576;2023-08-31T13:36:38;51896.63;;;-143.47;45.81
35121;BME280;21297;52.008;4.576;2023-08-31T13:39:04;51949.75;;;-143.47;46.42
35121;BME280;21297;52.008;4.576;2023-08-31T13:41:29;52148.53;;;-143.47;48.29
35121;BME280;21297;52.008;4.576;2023-08-31T13:43:55;52426.03;;;-143.47;46.08
35121;BME280;21297;52.008;4.576;2023-08-31T13:46:20;52284.31;;;-143.47;43.92
35121;BME280;21297;52.008;4.576;2023-08-31T13:48:45;52266.59;;;-143.47;43.96
35121;BME280;21297;52.008;4.576;2023-08-31T13:51:13;51993.06;;;-143.47;44.14
35121;BME280;21297;52.008;4.576;2023-08-31T13:53:56;52010.78;;;-143.47;44.69
35121;BME280;21297;52.008;4.576;2023-08-31T13:56:43;52059.97;;;-143.47;46.09
35121;BME280;21297;52.008;4.576;2023-08-31T13:59:29;52428.00;;;-143.47;43.69
35121;BME280;21297;52.008;4.576;2023-08-31T14:02:14;52581.50;;;-143.47;44.53
35121;BME280;21297;52.008;4.576;2023-08-31T14:05:00;52498.84;;;-143.47;43.12
35121;BME280;21297;52.008;4.576;2023-08-31T14:07:46;52648.44;;;-143.47;44.45
35121;BME280;21297;52.008;4.576;2023-08-31T14:10:32;52864.94;;;-143.47;42.74
35121;BME280;21297;52.008;4.576;2023-08-31T14:13:18;52323.69;;;-143.47;41.87
35121;BME280;21297;52.008;4.576;2023-08-31T14:16:04;52156.41;;;-143.47;43.53
35121;BME280;21297;52.008;4.576;2023-08-31T14:18:49;52176.09;;;-143.47;45.69
35121;BME280;21297;52.008;4.576;2023-08-31T14:21:35;52349.28;;;-143.47;43.83
35121;BME280;21297;52.008;4.576;2023-08-31T14:24:21;52778.34;;;-143.47;43.03
35121;BME280;21297;52.008;4.576;2023-08-31T14:27:07;52471.28;;;-143.47;42.41
35121;BME280;21297;52.008;4.576;2023-08-31T14:29:53;52410.28;;;-143.47;43.10
35121;BME280;21297;52.008;4.576;2023-08-31T14:32:38;52614.97;;;-143.47;42.78